createdAt,value
2018-02-09T00:00:08.601Z,80.08
2018-02-09T00:01:15.409Z,79.83
2018-02-09T00:02:20.158Z,79.76
2018-02-09T00:03:24.444Z,79.74
2018-02-09T00:04:28.667Z,80.01
2018-02-09T00:05:32.936Z,79.88
2018-02-09T00:06:37.185Z,80.08
2018-02-09T00:07:41.384Z,80.21
2018-02-09T00:08:45.871Z,80.01
2018-02-09T00:09:50.057Z,80.39
2018-02-09T00:10:54.303Z,80.65
2018-02-09T00:11:58.510Z,81.01
2018-02-09T00:13:02.677Z,80.67
2018-02-09T00:14:06.976Z,80.86
2018-02-09T00:15:13.617Z,80.19
2018-02-09T00:16:17.839Z,81.04
2018-02-09T00:17:22.001Z,81.10
2018-02-09T00:18:26.153Z,80.51
2018-02-09T00:19:31.307Z,80.83
2018-02-09T00:20:35.478Z,80.86
2018-02-09T00:21:39.652Z,80.50
2018-02-09T00:22:52.601Z,80.04
2018-02-09T00:23:57.471Z,80.37
2018-02-09T00:25:01.775Z,80.06
2018-02-09T00:26:06.236Z,80.24
2018-02-09T00:27:10.459Z,80.29
2018-02-09T00:28:14.720Z,80.06
2018-02-09T00:29:18.981Z,80.27
2018-02-09T00:30:23.673Z,80.82
2018-02-09T00:31:27.869Z,80.72
2018-02-09T00:32:33.228Z,80.68
2018-02-09T00:33:37.515Z,80.66
2018-02-09T00:34:41.741Z,80.83
2018-02-09T00:35:45.892Z,80.60
2018-02-09T00:36:50.127Z,80.40
2018-02-09T00:37:54.375Z,80.45
2018-02-09T00:38:58.993Z,80.37
2018-02-09T00:40:03.250Z,80.47
2018-02-09T00:41:08.021Z,80.46
2018-02-09T00:42:12.287Z,80.22
2018-02-09T00:43:17.453Z,80.32
2018-02-09T00:44:22.256Z,80.33
2018-02-09T00:45:27.160Z,80.85
2018-02-09T00:46:31.732Z,80.68
2018-02-09T00:47:36.008Z,80.46
2018-02-09T00:48:40.158Z,80.22
2018-02-09T00:49:44.304Z,80.35
2018-02-09T00:50:48.576Z,80.49
2018-02-09T00:51:52.788Z,80.33
2018-02-09T00:52:57.032Z,80.68
2018-02-09T00:54:01.212Z,80.46
2018-02-09T00:55:05.369Z,80.52
2018-02-09T00:56:09.634Z,80.44
2018-02-09T00:57:14.924Z,80.89
2018-02-09T00:58:20.018Z,80.66
2018-02-09T00:59:24.173Z,80.36
2018-02-09T01:00:28.429Z,80.62
2018-02-09T01:01:33.808Z,80.84
2018-02-09T01:02:37.991Z,80.48
2018-02-09T01:03:42.149Z,80.64
2018-02-09T01:04:47.225Z,80.85
2018-02-09T01:05:51.395Z,80.74
2018-02-09T01:06:55.662Z,80.67
2018-02-09T01:08:00.184Z,80.97
2018-02-09T01:09:04.589Z,80.63
2018-02-09T01:10:08.761Z,80.72
2018-02-09T01:11:13.012Z,80.47
2018-02-09T01:12:17.192Z,80.71
2018-02-09T01:13:22.157Z,80.28
2018-02-09T01:14:26.342Z,80.16
2018-02-09T01:15:30.686Z,80.34
2018-02-09T01:16:35.444Z,80.31
2018-02-09T01:17:39.677Z,80.40
2018-02-09T01:18:43.858Z,80.27
2018-02-09T01:19:48.281Z,80.65
2018-02-09T01:20:52.535Z,80.50
2018-02-09T01:21:56.711Z,80.62
2018-02-09T01:23:00.872Z,80.72
2018-02-09T01:24:05.152Z,80.50
2018-02-09T01:25:09.294Z,80.74
2018-02-09T01:26:13.768Z,80.71
2018-02-09T01:27:18.655Z,80.76
2018-02-09T01:28:23.680Z,80.77
2018-02-09T01:29:27.926Z,80.73
2018-02-09T01:30:33.455Z,80.96
2018-02-09T01:31:37.736Z,80.90
2018-02-09T01:32:42.200Z,80.82
2018-02-09T01:33:46.396Z,81.03
2018-02-09T01:34:50.539Z,81.14
2018-02-09T01:35:54.789Z,81.25
2018-02-09T01:36:58.934Z,81.21
2018-02-09T01:38:03.434Z,81.05
2018-02-09T01:39:07.692Z,81.34
2018-02-09T01:40:11.836Z,81.25
2018-02-09T01:41:16.103Z,81.34
2018-02-09T01:42:20.876Z,81.17
2018-02-09T01:43:25.108Z,81.38
2018-02-09T01:44:29.580Z,81.25
2018-02-09T01:45:34.020Z,81.21
2018-02-09T01:46:38.987Z,81.35
2018-02-09T01:47:44.249Z,81.50
2018-02-09T01:48:48.408Z,81.56
2018-02-09T01:50:01.644Z,81.46
2018-02-09T01:51:05.791Z,81.75
2018-02-09T01:52:10.051Z,81.69
2018-02-09T01:53:14.212Z,81.80
2018-02-09T01:54:19.524Z,81.59
2018-02-09T01:55:23.867Z,81.99
2018-02-09T01:56:28.691Z,81.95
2018-02-09T01:57:34.693Z,81.88
2018-02-09T01:58:39.287Z,81.80
2018-02-09T01:59:43.439Z,81.64
2018-02-09T02:00:47.580Z,82.01
2018-02-09T02:01:51.820Z,82.34
2018-02-09T02:02:56.271Z,82.01
2018-02-09T02:04:00.537Z,82.21
2018-02-09T02:05:04.671Z,82.43
2018-02-09T02:06:08.972Z,82.31
2018-02-09T02:07:13.136Z,82.09
2018-02-09T02:08:18.180Z,82.28
2018-02-09T02:09:22.787Z,82.58
2018-02-09T02:10:27.112Z,82.49
2018-02-09T02:11:31.313Z,82.09
2018-02-09T02:12:35.459Z,82.07
2018-02-09T02:13:40.023Z,81.81
2018-02-09T02:14:44.584Z,81.97
2018-02-09T02:15:49.158Z,82.19
2018-02-09T02:16:53.629Z,82.15
2018-02-09T02:17:57.838Z,82.95
2018-02-09T02:19:02.116Z,82.40
2018-02-09T02:20:06.269Z,82.42
2018-02-09T02:21:10.732Z,82.21
2018-02-09T02:22:14.967Z,82.30
2018-02-09T02:23:20.024Z,82.25
2018-02-09T02:24:24.455Z,82.23
2018-02-09T02:25:28.683Z,82.07
2018-02-09T02:26:32.819Z,81.90
2018-02-09T02:27:37.044Z,82.03
2018-02-09T02:28:41.202Z,81.87
2018-02-09T02:29:45.337Z,81.88
2018-02-09T02:30:49.853Z,81.82
2018-02-09T02:31:54.062Z,82.07
2018-02-09T02:32:58.252Z,82.02
2018-02-09T02:34:02.751Z,82.25
2018-02-09T02:35:06.889Z,82.06
2018-02-09T02:36:11.039Z,81.82
2018-02-09T02:37:15.292Z,82.07
2018-02-09T02:38:20.456Z,82.04
2018-02-09T02:39:24.604Z,82.15
2018-02-09T02:40:29.105Z,82.26
2018-02-09T02:41:33.407Z,82.04
2018-02-09T02:42:37.572Z,82.09
2018-02-09T02:43:41.752Z,82.17
2018-02-09T02:44:45.907Z,82.14
2018-02-09T02:45:50.259Z,82.48
2018-02-09T02:46:54.879Z,82.11
2018-02-09T02:47:59.027Z,82.65
2018-02-09T02:49:03.302Z,82.36
2018-02-09T02:50:07.444Z,82.49
2018-02-09T02:51:11.575Z,82.52
2018-02-09T02:52:16.112Z,82.30
2018-02-09T02:53:21.081Z,82.57
2018-02-09T02:55:34.474Z,82.68
2018-02-09T02:56:39.166Z,82.53
2018-02-09T02:57:43.646Z,82.46
2018-02-09T02:58:47.903Z,82.55
2018-02-09T02:59:52.072Z,82.43
2018-02-09T03:00:56.613Z,82.59
2018-02-09T03:02:00.781Z,82.44
2018-02-09T03:03:04.931Z,82.41
2018-02-09T03:04:12.392Z,82.52
2018-02-09T03:05:18.103Z,82.52
2018-02-09T03:06:22.258Z,82.43
2018-02-09T03:07:26.530Z,82.53
2018-02-09T03:08:30.685Z,82.73
2018-02-09T03:09:34.837Z,82.66
2018-02-09T03:10:39.460Z,82.66
2018-02-09T03:11:43.624Z,82.72
2018-02-09T03:12:47.764Z,82.74
2018-02-09T03:13:52.282Z,82.57
2018-02-09T03:14:56.705Z,82.84
2018-02-09T03:16:01.406Z,82.84
2018-02-09T03:17:05.918Z,82.64
2018-02-09T03:18:11.484Z,82.58
2018-02-09T03:19:16.327Z,82.53
2018-02-09T03:20:20.863Z,83.31
2018-02-09T03:21:25.016Z,83.21
2018-02-09T03:22:29.763Z,83.11
2018-02-09T03:23:33.936Z,83.14
2018-02-09T03:24:38.634Z,83.09
2018-02-09T03:25:42.778Z,83.14
2018-02-09T03:26:47.218Z,83.37
2018-02-09T03:27:51.657Z,83.26
2018-02-09T03:28:56.251Z,82.86
2018-02-09T03:30:01.103Z,82.64
2018-02-09T03:31:06.084Z,83.03
2018-02-09T03:32:10.540Z,83.15
2018-02-09T03:33:14.958Z,82.72
2018-02-09T03:34:19.987Z,82.88
2018-02-09T03:35:24.185Z,82.55
2018-02-09T03:36:28.896Z,82.54
2018-02-09T03:37:33.492Z,82.49
2018-02-09T03:38:37.883Z,82.37
2018-02-09T03:39:42.116Z,82.22
2018-02-09T03:40:46.272Z,82.10
2018-02-09T03:41:50.405Z,82.44
2018-02-09T03:42:54.953Z,82.49
2018-02-09T03:43:59.127Z,82.20
2018-02-09T03:45:05.201Z,82.31
2018-02-09T03:46:09.690Z,82.74
2018-02-09T03:47:13.844Z,82.64
2018-02-09T03:48:18.795Z,82.38
2018-02-09T03:49:23.255Z,82.42
2018-02-09T03:50:27.487Z,82.28
2018-02-09T03:51:31.633Z,82.64
2018-02-09T03:52:36.321Z,82.23
2018-02-09T03:53:40.852Z,82.24
2018-02-09T03:54:45.207Z,82.59
2018-02-09T03:55:50.172Z,82.50
2018-02-09T03:56:54.323Z,82.54
2018-02-09T03:57:59.087Z,82.79
2018-02-09T03:59:03.200Z,82.80
2018-02-09T04:00:07.968Z,82.59
2018-02-09T04:01:12.241Z,82.68
2018-02-09T04:02:18.102Z,82.66
2018-02-09T04:03:22.512Z,83.00
2018-02-09T04:04:26.667Z,82.82
2018-02-09T04:05:31.311Z,82.63
2018-02-09T04:06:35.455Z,82.84
2018-02-09T04:07:39.744Z,82.97
2018-02-09T04:08:43.901Z,83.32
2018-02-09T04:09:48.063Z,82.92
2018-02-09T04:10:52.204Z,82.92
2018-02-09T04:11:56.394Z,82.76
2018-02-09T04:13:00.626Z,82.50
2018-02-09T04:14:04.895Z,82.38
2018-02-09T04:15:09.651Z,82.31
2018-02-09T04:16:14.098Z,82.11
2018-02-09T04:17:19.321Z,82.27
2018-02-09T04:18:23.490Z,82.51
2018-02-09T04:19:27.679Z,82.34
2018-02-09T04:20:31.891Z,82.55
2018-02-09T04:21:37.167Z,82.50
2018-02-09T04:22:41.372Z,82.50
2018-02-09T04:23:45.521Z,82.33
2018-02-09T04:24:49.678Z,82.18
2018-02-09T04:25:53.805Z,82.46
2018-02-09T04:26:58.285Z,82.68
2018-02-09T04:28:02.501Z,82.28
2018-02-09T04:29:06.632Z,82.78
2018-02-09T04:30:12.383Z,82.95
2018-02-09T04:31:17.286Z,82.60
2018-02-09T04:32:22.440Z,82.75
2018-02-09T04:33:26.968Z,82.87
2018-02-09T04:34:31.412Z,82.73
2018-02-09T04:35:36.290Z,83.01
2018-02-09T04:36:40.832Z,83.05
2018-02-09T04:37:45.048Z,82.87
2018-02-09T04:38:49.877Z,82.89
2018-02-09T04:39:54.427Z,82.68
2018-02-09T04:40:59.048Z,82.91
2018-02-09T04:42:03.198Z,82.88
2018-02-09T04:43:07.419Z,82.83
2018-02-09T04:44:11.535Z,82.92
2018-02-09T04:45:17.550Z,82.89
2018-02-09T04:46:22.063Z,82.65
2018-02-09T04:47:26.585Z,82.81
2018-02-09T04:48:31.156Z,83.32
2018-02-09T04:49:36.071Z,83.29
2018-02-09T04:50:40.312Z,83.15
2018-02-09T04:51:45.112Z,83.28
2018-02-09T04:52:49.272Z,83.35
2018-02-09T04:53:53.487Z,82.96
2018-02-09T04:54:57.621Z,83.23
2018-02-09T04:56:01.797Z,83.20
2018-02-09T04:57:05.987Z,83.21
2018-02-09T04:58:10.480Z,83.09
2018-02-09T04:59:14.712Z,83.31
2018-02-09T05:00:20.034Z,83.32
2018-02-09T05:01:24.171Z,83.54
2018-02-09T05:02:28.308Z,83.11
2018-02-09T05:03:32.540Z,83.16
2018-02-09T05:04:36.720Z,82.91
2018-02-09T05:05:41.494Z,83.03
2018-02-09T05:06:45.729Z,82.98
2018-02-09T05:07:49.863Z,82.92
2018-02-09T05:08:54.019Z,83.23
2018-02-09T05:09:58.520Z,83.05
2018-02-09T05:11:02.747Z,83.20
2018-02-09T05:12:06.929Z,82.77
2018-02-09T05:13:11.103Z,82.90
2018-02-09T05:14:15.251Z,82.90
2018-02-09T05:15:21.192Z,83.59
2018-02-09T05:16:25.432Z,83.89
2018-02-09T05:17:29.573Z,83.63
2018-02-09T05:18:33.724Z,83.51
2018-02-09T05:19:37.875Z,83.35
2018-02-09T05:20:42.100Z,83.01
2018-02-09T05:21:46.614Z,83.19
2018-02-09T05:22:50.872Z,83.20
2018-02-09T05:23:55.019Z,83.13
2018-02-09T05:24:59.188Z,83.38
2018-02-09T05:26:03.437Z,83.65
2018-02-09T05:27:07.635Z,83.30
2018-02-09T05:28:12.097Z,83.09
2018-02-09T05:29:16.336Z,83.39
2018-02-09T05:30:20.783Z,83.02
2018-02-09T05:31:24.937Z,83.01
2018-02-09T05:32:29.191Z,83.12
2018-02-09T05:33:33.336Z,82.99
2018-02-09T05:34:37.731Z,83.26
2018-02-09T05:35:41.882Z,82.85
2018-02-09T05:36:46.118Z,83.02
2018-02-09T05:37:50.360Z,82.88
2018-02-09T05:38:54.927Z,82.96
2018-02-09T05:39:59.096Z,83.22
2018-02-09T05:41:03.599Z,82.84
2018-02-09T05:42:07.740Z,83.33
2018-02-09T05:43:11.976Z,82.76
2018-02-09T05:44:16.899Z,82.91
2018-02-09T05:45:21.537Z,83.57
2018-02-09T05:46:25.831Z,83.02
2018-02-09T05:47:30.294Z,83.80
2018-02-09T05:48:34.736Z,83.22
2018-02-09T05:49:39.860Z,83.57
2018-02-09T05:50:44.094Z,83.26
2018-02-09T05:51:48.267Z,83.25
2018-02-09T05:52:52.535Z,83.12
2018-02-09T05:53:57.012Z,83.11
2018-02-09T05:55:01.146Z,83.03
2018-02-09T05:56:05.344Z,82.99
2018-02-09T05:57:09.528Z,83.36
2018-02-09T05:58:13.712Z,82.99
2018-02-09T05:59:17.947Z,82.86
2018-02-09T06:00:22.987Z,82.95
2018-02-09T06:01:27.176Z,82.59
2018-02-09T06:02:31.405Z,82.69
2018-02-09T06:03:35.569Z,82.47
2018-02-09T06:04:40.583Z,82.75
2018-02-09T06:05:45.069Z,82.48
2018-02-09T06:06:49.213Z,82.19
2018-02-09T06:07:53.447Z,82.35
2018-02-09T06:08:57.913Z,82.49
2018-02-09T06:10:02.173Z,82.40
2018-02-09T06:11:06.343Z,82.41
2018-02-09T06:12:10.787Z,82.39
2018-02-09T06:13:15.061Z,82.46
2018-02-09T06:14:19.229Z,82.60
2018-02-09T06:15:24.977Z,82.43
2018-02-09T06:16:29.541Z,82.49
2018-02-09T06:17:33.814Z,82.42
2018-02-09T06:18:39.307Z,82.56
2018-02-09T06:19:43.443Z,82.60
2018-02-09T06:20:47.620Z,82.98
2018-02-09T06:21:51.758Z,82.88
2018-02-09T06:22:56.008Z,82.65
2018-02-09T06:24:00.589Z,82.71
2018-02-09T06:25:04.827Z,82.49
2018-02-09T06:26:09.063Z,82.69
2018-02-09T06:27:13.228Z,82.58
2018-02-09T06:29:19.076Z,82.57
2018-02-09T06:30:23.632Z,82.69
2018-02-09T06:31:28.268Z,82.66
2018-02-09T06:32:32.484Z,82.78
2018-02-09T06:33:36.664Z,82.87
2018-02-09T06:34:41.855Z,82.60
2018-02-09T06:35:46.004Z,82.72
2018-02-09T06:36:50.123Z,83.12
2018-02-09T06:37:54.580Z,82.95
2018-02-09T06:38:58.827Z,82.98
2018-02-09T06:40:03.010Z,83.20
2018-02-09T06:41:07.176Z,82.96
2018-02-09T06:42:11.347Z,82.80
2018-02-09T06:43:15.591Z,82.58
2018-02-09T06:44:20.844Z,82.48
2018-02-09T06:45:25.481Z,82.43
2018-02-09T06:46:29.641Z,82.30
2018-02-09T06:47:33.800Z,82.46
2018-02-09T06:48:37.965Z,82.17
2018-02-09T06:49:42.399Z,82.01
2018-02-09T06:50:46.647Z,81.69
2018-02-09T06:51:50.808Z,82.00
2018-02-09T06:52:54.986Z,81.94
2018-02-09T06:53:59.370Z,81.47
2018-02-09T06:55:03.990Z,81.40
2018-02-09T06:56:08.175Z,81.21
2018-02-09T06:57:12.342Z,81.33
2018-02-09T06:58:16.605Z,81.12
2018-02-09T06:59:20.922Z,81.03
2018-02-09T07:00:25.561Z,81.05
2018-02-09T07:01:30.029Z,81.07
2018-02-09T07:02:34.197Z,80.91
2018-02-09T07:03:39.308Z,80.77
2018-02-09T07:04:43.562Z,80.69
2018-02-09T07:05:47.691Z,80.69
2018-02-09T07:06:51.841Z,80.90
2018-02-09T07:07:56.364Z,81.03
2018-02-09T07:09:00.471Z,81.12
2018-02-09T07:10:04.741Z,81.04
2018-02-09T07:11:08.915Z,80.84
2018-02-09T07:12:13.084Z,80.71
2018-02-09T07:13:17.351Z,80.96
2018-02-09T07:14:21.990Z,80.71
2018-02-09T07:15:26.587Z,80.61
2018-02-09T07:16:30.737Z,80.63
2018-02-09T07:17:34.895Z,80.61
2018-02-09T07:18:39.652Z,80.94
2018-02-09T07:19:43.908Z,80.77
2018-02-09T07:20:48.557Z,81.06
2018-02-09T07:21:52.712Z,80.87
2018-02-09T07:22:56.895Z,81.03
2018-02-09T07:24:01.083Z,80.79
2018-02-09T07:25:05.333Z,80.99
2018-02-09T07:26:09.807Z,80.67
2018-02-09T07:27:13.944Z,80.62
2018-02-09T07:28:18.107Z,80.69
2018-02-09T07:29:23.078Z,80.49
2018-02-09T07:30:27.687Z,80.47
2018-02-09T07:31:32.160Z,80.23
2018-02-09T07:32:37.272Z,80.28
2018-02-09T07:33:42.455Z,80.44
2018-02-09T07:34:46.618Z,80.24
2018-02-09T07:35:50.911Z,79.72
2018-02-09T07:36:55.061Z,79.42
2018-02-09T07:37:59.354Z,79.11
2018-02-09T07:39:03.575Z,78.32
2018-02-09T07:40:07.729Z,78.09
2018-02-09T07:41:11.881Z,77.78
2018-02-09T07:42:16.046Z,77.65
2018-02-09T07:43:20.281Z,76.44
2018-02-09T07:44:25.093Z,76.11
2018-02-09T07:45:29.811Z,75.75
2018-02-09T07:46:33.960Z,75.31
2018-02-09T07:47:39.108Z,74.26
2018-02-09T07:48:43.280Z,74.06
2018-02-09T07:49:47.428Z,73.29
2018-02-09T07:50:51.601Z,73.05
2018-02-09T07:51:55.875Z,72.82
2018-02-09T07:53:00.031Z,73.14
2018-02-09T07:54:04.192Z,72.48
2018-02-09T07:55:08.355Z,72.04
2018-02-09T07:56:12.611Z,71.73
2018-02-09T07:57:17.073Z,71.94
2018-02-09T07:58:21.864Z,71.17
2018-02-09T07:59:26.551Z,71.04
2018-02-09T08:00:31.164Z,70.79
2018-02-09T08:01:35.391Z,70.58
2018-02-09T08:02:40.656Z,70.84
2018-02-09T08:03:44.812Z,70.33
2018-02-09T08:04:49.007Z,69.47
2018-02-09T08:05:53.232Z,69.79
2018-02-09T08:06:57.384Z,69.72
2018-02-09T08:08:01.652Z,70.30
2018-02-09T08:09:06.411Z,70.16
2018-02-09T08:10:10.561Z,69.61
2018-02-09T08:11:14.846Z,68.87
2018-02-09T08:12:19.016Z,69.21
2018-02-09T08:13:23.237Z,69.23
2018-02-09T08:14:27.820Z,69.87
2018-02-09T08:15:32.100Z,69.36
2018-02-09T08:16:36.619Z,68.31
2018-02-09T08:17:41.422Z,68.81
2018-02-09T08:18:45.622Z,68.44
2018-02-09T08:19:49.768Z,68.28
2018-02-09T08:20:54.204Z,68.46
2018-02-09T08:21:58.437Z,68.42
2018-02-09T08:23:02.679Z,67.33
2018-02-09T08:24:06.850Z,66.86
2018-02-09T08:25:11.056Z,66.25
2018-02-09T08:26:15.257Z,66.17
2018-02-09T08:27:19.482Z,66.23
2018-02-09T08:28:23.712Z,67.31
2018-02-09T08:29:28.646Z,66.63
2018-02-09T08:30:32.832Z,66.51
2018-02-09T08:31:37.000Z,66.12
2018-02-09T08:32:41.493Z,65.58
2018-02-09T08:33:46.535Z,66.56
2018-02-09T08:34:50.683Z,66.70
2018-02-09T08:35:55.062Z,65.64
2018-02-09T08:36:59.262Z,64.53
2018-02-09T08:38:03.424Z,64.39
2018-02-09T08:39:07.920Z,63.52
2018-02-09T08:40:12.194Z,64.07
2018-02-09T08:41:16.369Z,64.04
2018-02-09T08:42:20.617Z,63.83
2018-02-09T08:43:24.781Z,63.83
2018-02-09T08:44:29.587Z,63.64
2018-02-09T08:45:33.889Z,63.64
2018-02-09T08:46:38.064Z,63.77
2018-02-09T08:47:42.211Z,64.14
2018-02-09T08:48:46.997Z,63.95
2018-02-09T08:49:51.181Z,64.46
2018-02-09T08:50:55.345Z,63.55
2018-02-09T08:51:59.824Z,63.72
2018-02-09T08:53:04.028Z,63.61
2018-02-09T08:54:08.279Z,63.81
2018-02-09T08:55:12.440Z,62.41
2018-02-09T08:56:16.635Z,62.38
2018-02-09T08:57:20.861Z,62.91
2018-02-09T08:58:25.290Z,61.83
2018-02-09T08:59:29.633Z,62.26
2018-02-09T09:00:34.040Z,62.79
2018-02-09T09:01:38.402Z,62.77
2018-02-09T09:02:42.547Z,63.15
2018-02-09T09:03:47.316Z,63.81
2018-02-09T09:04:51.478Z,63.68
2018-02-09T09:05:55.641Z,62.98
2018-02-09T09:06:59.901Z,62.97
2018-02-09T09:08:04.119Z,62.32
2018-02-09T09:09:09.180Z,62.40
2018-02-09T09:10:13.445Z,62.64
2018-02-09T09:11:17.623Z,62.62
2018-02-09T09:12:21.879Z,61.48
2018-02-09T09:13:26.618Z,61.24
2018-02-09T09:14:30.887Z,61.14
2018-02-09T09:15:35.072Z,60.59
2018-02-09T09:16:39.535Z,60.19
2018-02-09T09:17:43.770Z,60.69
2018-02-09T09:18:48.479Z,60.00
2018-02-09T09:19:52.644Z,59.81
2018-02-09T09:20:56.932Z,59.89
2018-02-09T09:22:01.084Z,60.46
2018-02-09T09:23:05.264Z,61.18
2018-02-09T09:24:09.504Z,61.30
2018-02-09T09:25:13.664Z,61.05
2018-02-09T09:26:17.887Z,59.90
2018-02-09T09:27:22.149Z,60.54
2018-02-09T09:28:27.272Z,59.40
2018-02-09T09:29:31.554Z,59.43
2018-02-09T09:30:35.731Z,59.30
2018-02-09T09:31:39.929Z,59.01
2018-02-09T09:32:44.091Z,59.43
2018-02-09T09:33:49.256Z,59.27
2018-02-09T09:34:53.812Z,59.62
2018-02-09T09:35:57.984Z,59.90
2018-02-09T09:37:02.175Z,59.96
2018-02-09T09:38:06.425Z,59.08
2018-02-09T09:39:10.584Z,59.22
2018-02-09T09:40:14.737Z,59.19
2018-02-09T09:41:19.358Z,58.52
2018-02-09T09:42:24.351Z,59.05
2018-02-09T09:43:29.250Z,59.43
2018-02-09T09:44:33.556Z,60.38
2018-02-09T09:45:37.733Z,60.55
2018-02-09T09:46:41.984Z,60.47
2018-02-09T09:47:46.460Z,60.21
2018-02-09T09:48:51.511Z,60.12
2018-02-09T09:49:55.700Z,60.21
2018-02-09T09:50:59.955Z,60.63
2018-02-09T09:52:04.196Z,59.67
2018-02-09T09:53:09.761Z,59.31
2018-02-09T09:54:14.281Z,58.48
2018-02-09T09:55:18.454Z,57.90
2018-02-09T09:56:22.607Z,58.35
2018-02-09T09:57:27.504Z,57.37
2018-02-09T09:58:31.738Z,57.88
2018-02-09T09:59:36.052Z,57.57
2018-02-09T10:00:40.528Z,57.29
2018-02-09T10:01:44.692Z,57.55
2018-02-09T10:02:48.884Z,56.32
2018-02-09T10:03:53.096Z,56.38
2018-02-09T10:04:57.372Z,57.01
2018-02-09T10:06:02.055Z,57.12
2018-02-09T10:07:06.559Z,57.02
2018-02-09T10:08:10.744Z,57.10
2018-02-09T10:09:15.052Z,57.69
2018-02-09T10:10:19.309Z,57.58
2018-02-09T10:11:23.479Z,57.26
2018-02-09T10:12:28.541Z,57.30
2018-02-09T10:13:34.169Z,57.51
2018-02-09T10:14:38.375Z,57.34
2018-02-09T10:15:42.934Z,57.12
2018-02-09T10:16:47.180Z,56.83
2018-02-09T10:17:51.314Z,57.19
2018-02-09T10:18:55.588Z,56.07
2018-02-09T10:19:59.770Z,56.25
2018-02-09T10:21:04.991Z,56.82
2018-02-09T10:22:09.235Z,57.29
2018-02-09T10:23:13.397Z,57.67
2018-02-09T10:24:18.569Z,57.68
2018-02-09T10:25:23.141Z,57.29
2018-02-09T10:26:28.225Z,57.92
2018-02-09T10:27:32.585Z,57.82
2018-02-09T10:28:36.771Z,56.02
2018-02-09T10:29:40.921Z,55.38
2018-02-09T10:30:46.578Z,55.07
2018-02-09T10:31:51.045Z,55.29
2018-02-09T10:32:55.320Z,55.43
2018-02-09T10:33:59.537Z,53.94
2018-02-09T10:35:03.700Z,53.59
2018-02-09T10:36:07.936Z,53.52
2018-02-09T10:37:12.405Z,53.92
2018-02-09T10:38:16.594Z,53.78
2018-02-09T10:39:20.747Z,54.30
2018-02-09T10:40:24.952Z,54.88
2018-02-09T10:41:30.058Z,54.08
2018-02-09T10:42:34.272Z,53.47
2018-02-09T10:43:38.885Z,53.06
2018-02-09T10:44:43.035Z,52.75
2018-02-09T10:45:47.428Z,52.72
2018-02-09T10:46:51.615Z,52.84
2018-02-09T10:47:55.798Z,51.76
2018-02-09T10:49:00.127Z,51.37
2018-02-09T10:50:04.688Z,51.14
2018-02-09T10:51:08.876Z,50.69
2018-02-09T10:52:13.054Z,50.85
2018-02-09T10:53:17.250Z,50.72
2018-02-09T10:54:22.276Z,50.49
2018-02-09T10:55:26.604Z,50.75
2018-02-09T10:56:31.727Z,50.46
2018-02-09T10:57:35.884Z,51.56
2018-02-09T10:58:41.048Z,52.15
2018-02-09T10:59:46.501Z,52.21
2018-02-09T11:00:54.776Z,52.21
2018-02-09T11:01:58.939Z,51.09
2018-02-09T11:03:05.084Z,50.42
2018-02-09T11:04:09.957Z,51.19
2018-02-09T11:05:14.132Z,51.07
2018-02-09T11:06:18.333Z,50.65
2018-02-09T11:07:22.560Z,49.85
2018-02-09T11:08:26.786Z,49.27
2018-02-09T11:09:32.388Z,49.49
2018-02-09T11:11:52.428Z,49.27
2018-02-09T11:12:56.829Z,49.09
2018-02-09T11:14:01.813Z,49.57
2018-02-09T11:15:07.762Z,49.37
2018-02-09T11:16:11.957Z,48.72
2018-02-09T11:17:16.151Z,48.42
2018-02-09T11:18:20.399Z,47.92
2018-02-09T11:19:24.606Z,48.18
2018-02-09T11:20:28.807Z,48.38
2018-02-09T11:21:33.004Z,47.67
2018-02-09T11:22:37.804Z,46.59
2018-02-09T11:23:42.176Z,47.40
2018-02-09T11:24:46.517Z,48.20
2018-02-09T11:25:50.724Z,47.52
2018-02-09T11:26:54.884Z,47.88
2018-02-09T11:27:59.191Z,48.16
2018-02-09T11:29:03.704Z,48.41
2018-02-09T11:30:08.184Z,48.68
2018-02-09T11:31:12.368Z,48.70
2018-02-09T11:32:16.555Z,49.06
2018-02-09T11:33:20.825Z,49.55
2018-02-09T11:34:25.074Z,48.93
2018-02-09T11:35:30.447Z,48.84
2018-02-09T11:36:34.644Z,49.74
2018-02-09T11:37:38.887Z,50.32
2018-02-09T11:38:43.287Z,50.38
2018-02-09T11:39:47.718Z,49.90
2018-02-09T11:40:51.911Z,50.76
2018-02-09T11:41:56.428Z,50.24
2018-02-09T11:43:01.674Z,50.83
2018-02-09T11:44:05.872Z,49.83
2018-02-09T11:45:11.919Z,49.30
2018-02-09T11:46:16.220Z,48.80
2018-02-09T11:47:20.795Z,49.24
2018-02-09T11:48:25.164Z,50.10
2018-02-09T11:49:30.244Z,50.78
2018-02-09T11:50:35.428Z,49.44
2018-02-09T11:51:39.822Z,48.01
2018-02-09T11:52:44.548Z,48.36
2018-02-09T11:53:49.528Z,49.15
2018-02-09T11:54:53.702Z,49.44
2018-02-09T11:55:57.949Z,49.33
2018-02-09T11:57:02.249Z,49.65
2018-02-09T11:58:06.535Z,48.41
2018-02-09T11:59:11.162Z,47.70
2018-02-09T12:00:17.794Z,47.44
2018-02-09T12:01:22.239Z,46.66
2018-02-09T12:02:26.511Z,46.86
2018-02-09T12:03:30.703Z,46.19
2018-02-09T12:04:35.449Z,44.76
2018-02-09T12:05:39.767Z,45.89
2018-02-09T12:06:44.077Z,46.01
2018-02-09T12:07:48.397Z,46.12
2018-02-09T12:08:52.593Z,47.22
2018-02-09T12:09:56.759Z,48.27
2018-02-09T12:11:01.479Z,47.40
2018-02-09T12:12:05.664Z,47.56
2018-02-09T12:13:09.904Z,48.17
2018-02-09T12:14:14.099Z,48.23
2018-02-09T12:15:18.653Z,47.95
2018-02-09T12:16:23.232Z,47.25
2018-02-09T12:17:27.418Z,46.78
2018-02-09T12:18:31.578Z,46.70
2018-02-09T12:19:36.725Z,46.65
2018-02-09T12:20:40.928Z,46.67
2018-02-09T12:21:45.292Z,46.99
2018-02-09T12:22:50.894Z,46.72
2018-02-09T12:23:55.946Z,47.42
2018-02-09T12:25:00.125Z,46.61
2018-02-09T12:26:04.385Z,46.14
2018-02-09T12:27:08.643Z,45.80
2018-02-09T12:28:12.880Z,45.52
2018-02-09T12:29:17.362Z,45.76
2018-02-09T12:30:21.710Z,46.22
2018-02-09T12:31:26.048Z,46.81
2018-02-09T12:32:30.308Z,47.31
2018-02-09T12:33:35.065Z,47.33
2018-02-09T12:34:39.824Z,46.14
2018-02-09T12:35:45.544Z,45.19
2018-02-09T12:36:49.707Z,45.64
2018-02-09T12:37:53.884Z,46.32
2018-02-09T12:38:58.204Z,45.19
2018-02-09T12:40:03.460Z,46.33
2018-02-09T12:41:07.797Z,47.37
2018-02-09T12:42:12.474Z,47.71
2018-02-09T12:43:17.514Z,46.90
2018-02-09T12:44:21.753Z,47.48
2018-02-09T12:45:26.431Z,47.95
2018-02-09T12:46:30.713Z,48.88
2018-02-09T12:47:34.975Z,49.27
2018-02-09T12:48:40.214Z,48.99
2018-02-09T12:49:44.482Z,48.33
2018-02-09T12:50:48.833Z,48.14
2018-02-09T12:51:53.132Z,49.68
2018-02-09T12:52:57.345Z,50.12
2018-02-09T12:54:02.137Z,49.08
2018-02-09T12:55:06.662Z,48.57
2018-02-09T12:56:10.935Z,49.01
2018-02-09T12:57:15.135Z,49.23
2018-02-09T12:58:19.369Z,49.25
2018-02-09T12:59:23.578Z,48.53
2018-02-09T13:00:27.892Z,48.03
2018-02-09T13:01:33.144Z,48.18
2018-02-09T13:02:38.365Z,47.23
2018-02-09T13:03:42.652Z,46.16
2018-02-09T13:04:47.021Z,47.60
2018-02-09T13:05:51.224Z,49.34
2018-02-09T13:06:55.850Z,48.75
2018-02-09T13:08:00.666Z,48.94
2018-02-09T13:09:05.097Z,48.52
2018-02-09T13:10:09.324Z,47.62
2018-02-09T13:11:13.617Z,47.28
2018-02-09T13:12:26.496Z,47.88
2018-02-09T13:13:30.794Z,46.96
2018-02-09T13:14:43.766Z,48.93
2018-02-09T13:15:48.137Z,48.83
2018-02-09T13:16:52.337Z,49.03
2018-02-09T13:17:56.602Z,49.13
2018-02-09T13:19:01.436Z,50.21
2018-02-09T13:20:05.954Z,51.10
2018-02-09T13:21:10.261Z,50.56
2018-02-09T13:22:23.196Z,50.22
2018-02-09T13:23:38.304Z,49.48
2018-02-09T13:24:42.598Z,48.35
2018-02-09T13:25:46.990Z,49.03
2018-02-09T13:26:52.536Z,49.05
2018-02-09T13:27:56.855Z,48.33
2018-02-09T13:29:02.009Z,48.74
2018-02-09T13:30:06.971Z,47.67
2018-02-09T13:31:11.456Z,45.93
2018-02-09T13:32:24.811Z,46.50
2018-02-09T13:33:32.931Z,46.67
2018-02-09T13:34:37.220Z,46.81
2018-02-09T13:35:41.473Z,47.04
2018-02-09T13:37:49.412Z,46.74
2018-02-09T13:38:53.962Z,46.66
2018-02-09T13:39:58.165Z,47.09
2018-02-09T13:41:02.987Z,48.02
2018-02-09T13:42:07.274Z,48.17
2018-02-09T13:43:11.468Z,47.88
2018-02-09T13:44:15.686Z,46.59
2018-02-09T13:45:20.416Z,45.46
2018-02-09T13:46:24.613Z,45.03
2018-02-09T13:47:28.957Z,46.12
2018-02-09T13:48:33.246Z,46.14
2018-02-09T13:49:37.438Z,45.63
2018-02-09T13:50:42.663Z,44.02
2018-02-09T13:51:47.358Z,44.50
2018-02-09T13:52:51.671Z,46.53
2018-02-09T13:53:55.865Z,46.69
2018-02-09T13:55:00.333Z,45.74